createdAt,value
2018-12-27T00:02:18.126Z,1.47
2018-12-27T00:05:21.592Z,1.20
2018-12-27T00:08:25.080Z,1.40
2018-12-27T00:11:28.591Z,1.50
2018-12-27T00:14:32.071Z,1.40
2018-12-27T00:17:35.538Z,1.40
2018-12-27T00:20:39.238Z,1.35
2018-12-27T00:23:42.897Z,1.52
2018-12-27T00:26:46.350Z,1.82
2018-12-27T00:29:49.911Z,1.40
2018-12-27T00:32:54.756Z,1.52
2018-12-27T00:35:59.686Z,1.32
2018-12-27T00:39:05.091Z,1.42
2018-12-27T00:42:08.866Z,1.40
2018-12-27T00:45:19.636Z,1.60
2018-12-27T00:48:23.525Z,1.42
2018-12-27T00:51:27.438Z,1.30
2018-12-27T00:54:31.377Z,1.50
2018-12-27T00:57:35.272Z,1.42
2018-12-27T01:00:40.059Z,1.40
2018-12-27T01:03:43.925Z,1.57
2018-12-27T01:06:47.810Z,1.47
2018-12-27T01:09:51.735Z,1.40
2018-12-27T01:12:55.636Z,1.50
2018-12-27T01:15:59.475Z,1.40
2018-12-27T01:19:03.462Z,1.42
2018-12-27T01:22:07.277Z,1.22
2018-12-27T01:25:13.115Z,1.40
2018-12-27T01:28:16.896Z,1.40
2018-12-27T01:31:20.749Z,1.35
2018-12-27T01:34:24.551Z,1.35
2018-12-27T01:37:28.350Z,1.65
2018-12-27T01:40:32.158Z,1.35
2018-12-27T01:43:36.989Z,1.40
2018-12-27T01:46:40.894Z,1.60
2018-12-27T01:49:44.826Z,1.37
2018-12-27T01:52:48.660Z,1.50
2018-12-27T01:55:52.457Z,1.52
2018-12-27T01:58:57.368Z,1.30
2018-12-27T02:02:01.191Z,1.60
2018-12-27T02:05:04.996Z,1.45
2018-12-27T02:08:08.805Z,1.43
2018-12-27T02:11:13.772Z,1.60
2018-12-27T02:14:19.585Z,1.42
2018-12-27T02:17:23.607Z,1.80
2018-12-27T02:20:27.466Z,1.22
2018-12-27T02:23:31.315Z,1.60
2018-12-27T02:26:35.221Z,1.27
2018-12-27T02:29:40.175Z,1.37
2018-12-27T02:32:44.064Z,1.32
2018-12-27T02:35:47.907Z,1.52
2018-12-27T02:38:51.892Z,1.40
2018-12-27T02:41:55.720Z,1.40
2018-12-27T02:44:59.729Z,1.30
2018-12-27T02:48:03.629Z,1.30
2018-12-27T02:51:07.442Z,1.37
2018-12-27T02:54:11.234Z,1.50
2018-12-27T02:57:15.158Z,1.57
2018-12-27T03:00:18.972Z,1.30
2018-12-27T03:03:22.780Z,1.20
2018-12-27T03:06:26.583Z,1.50
2018-12-27T03:09:30.389Z,1.10
2018-12-27T03:12:34.288Z,1.30
2018-12-27T03:15:38.117Z,1.20
2018-12-27T03:18:47.751Z,1.50
2018-12-27T03:21:51.558Z,1.30
2018-12-27T03:24:55.494Z,1.30
2018-12-27T03:27:59.373Z,1.30
2018-12-27T03:31:03.205Z,1.42
2018-12-27T03:34:07.007Z,1.20
2018-12-27T03:37:10.940Z,1.20
2018-12-27T03:40:14.721Z,1.30
2018-12-27T03:43:18.685Z,1.57
2018-12-27T03:46:22.667Z,1.10
2018-12-27T03:49:26.498Z,1.30
2018-12-27T03:52:30.457Z,1.35
2018-12-27T03:55:34.662Z,1.47
2018-12-27T03:58:38.477Z,1.12
2018-12-27T04:01:42.305Z,1.40
2018-12-27T04:04:46.097Z,1.30
2018-12-27T04:07:49.915Z,1.40
2018-12-27T04:10:53.735Z,1.30
2018-12-27T04:13:58.511Z,1.12
2018-12-27T04:17:02.027Z,1.30
2018-12-27T04:20:05.500Z,1.27
2018-12-27T04:23:09.052Z,1.17
2018-12-27T04:26:12.908Z,1.30
2018-12-27T04:29:17.459Z,1.20
2018-12-27T04:32:21.987Z,1.45
2018-12-27T04:35:25.493Z,1.27
2018-12-27T04:38:29.012Z,1.30
2018-12-27T04:41:32.478Z,1.00
2018-12-27T04:44:38.025Z,1.30
2018-12-27T04:47:41.476Z,1.15
2018-12-27T04:50:44.946Z,1.50
2018-12-27T04:53:48.469Z,1.20
2018-12-27T04:56:52.043Z,1.22
2018-12-27T04:59:56.560Z,1.40
2018-12-27T05:03:01.086Z,1.02
2018-12-27T05:06:04.594Z,1.50
2018-12-27T05:09:09.153Z,1.10
2018-12-27T05:12:15.772Z,1.22
2018-12-27T05:15:19.379Z,1.10
2018-12-27T05:18:22.868Z,1.20
2018-12-27T05:21:26.420Z,1.20
2018-12-27T05:24:29.931Z,1.25
2018-12-27T05:27:35.496Z,1.10
2018-12-27T05:30:38.982Z,1.17
2018-12-27T05:33:45.785Z,1.40
2018-12-27T05:36:49.464Z,1.25
2018-12-27T05:39:53.084Z,1.30
2018-12-27T05:42:56.541Z,1.10
2018-12-27T05:46:00.035Z,1.10
2018-12-27T05:49:05.374Z,1.22
2018-12-27T05:52:08.829Z,1.30
2018-12-27T05:55:12.278Z,1.20
2018-12-27T05:58:15.790Z,1.05
2018-12-27T06:01:21.355Z,1.25
2018-12-27T06:04:24.797Z,1.17
2018-12-27T06:07:28.360Z,1.20
2018-12-27T06:10:31.808Z,1.00
2018-12-27T06:13:35.254Z,0.90
2018-12-27T06:16:38.765Z,0.90
2018-12-27T06:19:42.572Z,1.00
2018-12-27T06:22:47.105Z,1.10
2018-12-27T06:25:52.636Z,1.12
2018-12-27T06:28:57.193Z,1.10
2018-12-27T06:32:00.641Z,1.00
2018-12-27T06:35:04.145Z,1.15
2018-12-27T06:38:07.677Z,1.17
2018-12-27T06:41:11.196Z,1.00
2018-12-27T06:44:14.696Z,1.00
2018-12-27T06:47:19.194Z,0.93
2018-12-27T06:50:22.672Z,0.98
2018-12-27T06:53:27.353Z,1.10
2018-12-27T06:56:31.946Z,1.00
2018-12-27T06:59:36.477Z,0.90
2018-12-27T07:02:39.966Z,1.00
2018-12-27T07:05:45.499Z,1.10
2018-12-27T07:08:51.110Z,1.00
2018-12-27T07:11:56.377Z,0.90
2018-12-27T07:15:00.143Z,1.10
2018-12-27T07:18:04.646Z,0.88
2018-12-27T07:21:08.111Z,0.93
2018-12-27T07:24:13.686Z,1.00
2018-12-27T07:27:17.184Z,0.85
2018-12-27T07:30:23.839Z,0.80
2018-12-27T07:33:27.362Z,0.90
2018-12-27T07:36:30.884Z,0.80
2018-12-27T07:39:34.363Z,0.93
2018-12-27T07:42:37.876Z,1.10
2018-12-27T07:45:41.485Z,0.90
2018-12-27T07:48:46.009Z,0.90
2018-12-27T07:51:49.514Z,0.80
2018-12-27T07:54:52.969Z,0.80
2018-12-27T07:57:56.504Z,1.02
2018-12-27T08:01:00.041Z,0.80
2018-12-27T08:04:05.541Z,0.80
2018-12-27T08:07:08.994Z,0.80
2018-12-27T08:10:13.562Z,1.00
2018-12-27T08:13:18.103Z,0.90
2018-12-27T08:16:22.641Z,0.98
2018-12-27T08:19:26.170Z,0.93
2018-12-27T08:22:29.660Z,0.80
2018-12-27T08:25:34.161Z,0.80
2018-12-27T08:28:37.644Z,0.90
2018-12-27T08:31:41.165Z,0.90
2018-12-27T08:34:44.665Z,0.90
2018-12-27T08:37:48.174Z,0.85
2018-12-27T08:40:51.655Z,0.95
2018-12-27T08:43:56.129Z,0.60
2018-12-27T08:46:59.669Z,0.80
2018-12-27T08:50:03.394Z,0.75
2018-12-27T08:53:06.901Z,0.82
2018-12-27T08:56:11.417Z,0.80
2018-12-27T08:59:14.931Z,0.80
2018-12-27T09:02:18.429Z,0.88
2018-12-27T09:05:22.011Z,0.90
2018-12-27T09:08:25.475Z,1.00
2018-12-27T09:11:29.119Z,1.05
2018-12-27T09:14:32.734Z,0.98
2018-12-27T09:17:36.237Z,1.00
2018-12-27T09:20:39.727Z,0.90
2018-12-27T09:23:43.259Z,0.90
2018-12-27T09:26:46.792Z,0.98
2018-12-27T09:29:50.277Z,0.90
2018-12-27T09:32:53.723Z,0.68
2018-12-27T09:35:57.231Z,1.00
2018-12-27T09:39:00.849Z,0.93
2018-12-27T09:42:06.370Z,1.00
2018-12-27T09:45:09.912Z,0.80
2018-12-27T09:48:13.395Z,0.95
2018-12-27T09:51:16.895Z,0.82
2018-12-27T09:54:20.457Z,0.95
2018-12-27T09:57:23.902Z,0.90
2018-12-27T10:00:27.386Z,1.15
2018-12-27T10:03:30.901Z,0.93
2018-12-27T10:06:34.398Z,0.72
2018-12-27T10:09:37.912Z,0.90
2018-12-27T10:12:43.455Z,0.80
2018-12-27T10:15:46.939Z,1.10
2018-12-27T10:18:50.424Z,0.82
2018-12-27T10:21:54.024Z,1.10
2018-12-27T10:24:57.623Z,1.02
2018-12-27T10:28:02.106Z,0.93
2018-12-27T10:31:05.597Z,0.88
2018-12-27T10:34:09.240Z,0.88
2018-12-27T10:37:12.978Z,0.85
2018-12-27T10:40:16.658Z,0.90
2018-12-27T10:43:20.321Z,0.95
2018-12-27T10:46:23.835Z,0.70
2018-12-27T10:49:27.317Z,0.93
2018-12-27T10:52:30.808Z,0.70
2018-12-27T10:55:35.339Z,0.80
2018-12-27T10:58:38.824Z,0.85
2018-12-27T11:01:42.271Z,0.75
2018-12-27T11:04:45.841Z,0.80
2018-12-27T11:07:49.336Z,1.30
2018-12-27T11:10:52.999Z,1.12
2018-12-27T11:13:57.576Z,1.30
2018-12-27T11:17:01.076Z,1.25
2018-12-27T11:20:04.633Z,1.30
2018-12-27T11:23:08.274Z,1.15
2018-12-27T11:26:11.776Z,0.93
2018-12-27T11:29:15.292Z,1.20
2018-12-27T11:32:19.892Z,0.90
2018-12-27T11:35:24.558Z,1.07
2018-12-27T11:38:28.051Z,1.20
2018-12-27T11:41:31.541Z,1.20
2018-12-27T11:44:35.030Z,1.00
2018-12-27T11:47:39.568Z,1.42
2018-12-27T11:50:43.073Z,1.10
2018-12-27T11:53:46.809Z,1.25
2018-12-27T11:56:51.292Z,1.22
2018-12-27T11:59:54.862Z,1.20
2018-12-27T12:02:58.909Z,1.02
2018-12-27T12:06:03.416Z,1.15
2018-12-27T12:09:08.176Z,1.10
2018-12-27T12:12:13.698Z,0.93
2018-12-27T12:15:19.311Z,0.85
2018-12-27T12:18:23.790Z,1.17
2018-12-27T12:21:28.338Z,1.12
2018-12-27T12:24:32.014Z,0.90
2018-12-27T12:27:35.753Z,0.95
2018-12-27T12:30:39.234Z,1.10
2018-12-27T12:33:42.710Z,0.93
2018-12-27T12:36:46.242Z,1.17
2018-12-27T12:39:49.749Z,1.00
2018-12-27T12:42:53.220Z,1.00
2018-12-27T12:45:58.782Z,1.20
2018-12-27T12:49:02.288Z,1.10
2018-12-27T12:52:05.784Z,1.10
2018-12-27T12:55:09.289Z,0.80
2018-12-27T12:58:12.848Z,1.00
2018-12-27T13:01:16.508Z,1.10
2018-12-27T13:04:20.020Z,1.40
2018-12-27T13:07:24.507Z,1.60
2018-12-27T13:10:28.028Z,1.00
2018-12-27T13:13:31.629Z,1.12
2018-12-27T13:16:35.243Z,1.00
2018-12-27T13:19:38.767Z,1.10
2018-12-27T13:22:42.246Z,0.93
2018-12-27T13:25:45.846Z,1.15
2018-12-27T13:28:49.433Z,1.15
2018-12-27T13:31:53.039Z,1.02
2018-12-27T13:34:56.650Z,1.20
2018-12-27T13:38:00.219Z,0.82
2018-12-27T13:41:03.862Z,1.05
2018-12-27T13:44:09.494Z,1.00
2018-12-27T13:47:13.168Z,1.22
2018-12-27T13:50:16.827Z,1.00
2018-12-27T13:53:20.311Z,0.85
2018-12-27T13:56:23.842Z,0.80
2018-12-27T13:59:27.569Z,1.00
2018-12-27T14:02:31.229Z,1.00
2018-12-27T14:05:34.915Z,1.05
2018-12-27T14:08:39.459Z,0.95
2018-12-27T14:11:43.984Z,1.30
2018-12-27T14:14:47.506Z,1.02
2018-12-27T14:17:50.975Z,0.98
2018-12-27T14:20:54.491Z,1.00
2018-12-27T14:23:59.223Z,1.10
2018-12-27T14:27:02.701Z,0.90
2018-12-27T14:30:06.789Z,0.80
2018-12-27T14:33:10.331Z,1.00
2018-12-27T14:36:13.831Z,0.80
2018-12-27T14:39:17.328Z,0.80
2018-12-27T14:42:21.701Z,0.90
2018-12-27T14:45:25.369Z,1.07
2018-12-27T14:48:29.889Z,0.80
2018-12-27T14:51:33.391Z,1.10
2018-12-27T14:54:36.891Z,1.05
2018-12-27T14:57:42.433Z,0.95
2018-12-27T15:00:45.947Z,1.10
2018-12-27T15:03:49.425Z,1.00
2018-12-27T15:06:52.943Z,0.80
2018-12-27T15:09:56.478Z,1.07
2018-12-27T15:12:59.939Z,0.70
2018-12-27T15:16:03.555Z,0.70
2018-12-27T15:19:07.147Z,0.80
2018-12-27T15:22:10.658Z,0.90
2018-12-27T15:25:14.200Z,1.05
2018-12-27T15:28:18.687Z,1.10
2018-12-27T15:31:22.178Z,0.98
2018-12-27T15:34:25.799Z,1.20
2018-12-27T15:37:29.402Z,0.70
2018-12-27T15:40:32.911Z,0.98
2018-12-27T15:43:36.474Z,0.90
2018-12-27T15:46:41.122Z,0.90
2018-12-27T15:49:44.838Z,0.95
2018-12-27T15:52:48.369Z,0.82
2018-12-27T15:55:51.925Z,0.90
2018-12-27T15:58:55.630Z,0.78
2018-12-27T16:01:59.254Z,1.00
2018-12-27T16:05:02.731Z,1.00
2018-12-27T16:08:06.349Z,0.90
2018-12-27T16:11:09.967Z,0.90
2018-12-27T16:14:13.537Z,0.80
2018-12-27T16:17:17.140Z,1.22
2018-12-27T16:20:20.690Z,0.90
2018-12-27T16:23:24.179Z,1.05
2018-12-27T16:26:27.634Z,1.10
2018-12-27T16:29:31.186Z,1.15
2018-12-27T16:32:34.766Z,0.95
2018-12-27T16:35:38.479Z,1.30
2018-12-27T16:38:42.066Z,1.10
2018-12-27T16:41:45.611Z,1.52
2018-12-27T16:44:49.063Z,1.00
2018-12-27T16:47:52.569Z,1.00
2018-12-27T16:50:57.258Z,1.30
2018-12-27T16:54:01.767Z,1.02
2018-12-27T16:57:05.404Z,1.07
2018-12-27T17:00:09.077Z,1.10
2018-12-27T17:03:12.548Z,1.00
2018-12-27T17:06:16.038Z,1.00
2018-12-27T17:09:19.555Z,1.27
2018-12-27T17:12:23.032Z,1.10
2018-12-27T17:15:26.534Z,1.05
2018-12-27T17:18:30.060Z,1.20
2018-12-27T17:21:33.558Z,1.30
2018-12-27T17:24:43.185Z,1.00
2018-12-27T17:27:46.694Z,1.20
2018-12-27T17:30:50.180Z,1.10
2018-12-27T17:33:53.697Z,1.40
2018-12-27T17:36:57.187Z,1.07
2018-12-27T17:40:00.697Z,1.37
2018-12-27T17:43:05.217Z,1.00
2018-12-27T17:46:09.735Z,1.10
2018-12-27T17:49:13.257Z,1.17
2018-12-27T17:52:16.757Z,1.30
2018-12-27T17:55:20.243Z,1.00
2018-12-27T17:58:23.746Z,1.22
2018-12-27T18:01:27.268Z,1.22
2018-12-27T18:04:30.751Z,1.17
2018-12-27T18:07:34.659Z,1.37
2018-12-27T18:10:38.150Z,1.40
2018-12-27T18:13:42.681Z,1.30
2018-12-27T18:16:47.217Z,1.50
2018-12-27T18:19:50.694Z,1.20
2018-12-27T18:22:54.224Z,1.20
2018-12-27T18:25:57.814Z,1.42
2018-12-27T18:29:01.427Z,1.57
2018-12-27T18:32:05.074Z,1.30
2018-12-27T18:35:08.709Z,1.50
2018-12-27T18:38:12.321Z,1.20
2018-12-27T18:41:16.838Z,1.30
2018-12-27T18:44:20.640Z,1.30
2018-12-27T18:47:24.311Z,1.35
2018-12-27T18:50:28.797Z,1.05
2018-12-27T18:53:32.305Z,1.42
2018-12-27T18:56:35.782Z,1.22
2018-12-27T18:59:39.314Z,1.30
2018-12-27T19:02:42.795Z,1.50
2018-12-27T19:05:46.294Z,1.45
2018-12-27T19:08:49.790Z,1.40
2018-12-27T19:12:30.238Z,1.52
2018-12-27T19:15:47.417Z,1.12
2018-12-27T19:18:51.170Z,1.32
2018-12-27T19:21:57.520Z,1.47
2018-12-27T19:25:02.216Z,1.60
2018-12-27T19:28:05.680Z,1.30
2018-12-27T19:31:09.201Z,1.52
2018-12-27T19:34:12.715Z,1.10
2018-12-27T19:37:16.499Z,1.12
2018-12-27T19:40:20.095Z,1.32
2018-12-27T19:43:24.628Z,1.20
2018-12-27T19:46:28.117Z,1.22
2018-12-27T19:49:31.644Z,1.35
2018-12-27T19:52:36.181Z,1.22
2018-12-27T19:55:39.649Z,1.50
2018-12-27T19:58:43.159Z,1.27
2018-12-27T20:01:46.692Z,1.30
2018-12-27T20:04:51.198Z,1.30
2018-12-27T20:07:59.196Z,1.57
2018-12-27T20:11:01.132Z,1.30
2018-12-27T20:14:04.790Z,1.10
2018-12-27T20:17:08.307Z,1.40
2018-12-27T20:20:11.852Z,1.32
2018-12-27T20:23:15.484Z,1.20
2018-12-27T20:26:19.044Z,1.50
2018-12-27T20:29:22.666Z,1.50
2018-12-27T20:32:26.209Z,1.40
2018-12-27T20:35:29.723Z,1.30
2018-12-27T20:38:33.217Z,1.37
2018-12-27T20:41:36.711Z,1.15
2018-12-27T20:44:40.350Z,1.72
2018-12-27T20:47:43.897Z,1.50
2018-12-27T20:50:47.391Z,1.60
2018-12-27T20:53:50.918Z,1.42
2018-12-27T20:56:54.411Z,1.60
2018-12-27T20:59:58.012Z,1.50
2018-12-27T21:03:01.662Z,1.60
2018-12-27T21:06:05.303Z,1.20
2018-12-27T21:09:08.811Z,1.62
2018-12-27T21:12:12.314Z,1.30
2018-12-27T21:15:15.806Z,1.60
2018-12-27T21:18:19.330Z,1.30
2018-12-27T21:21:23.849Z,1.22
2018-12-27T21:24:27.352Z,1.40
2018-12-27T21:27:30.802Z,1.52
2018-12-27T21:30:34.330Z,1.70
2018-12-27T21:33:37.837Z,1.50
2018-12-27T21:36:41.332Z,1.65
2018-12-27T21:39:44.866Z,1.72
2018-12-27T21:42:48.325Z,1.57
2018-12-27T21:45:51.885Z,1.27
2018-12-27T21:48:57.558Z,1.50
2018-12-27T21:52:01.093Z,1.40
2018-12-27T21:55:08.027Z,1.40
2018-12-27T21:58:11.172Z,1.30
2018-12-27T22:01:15.626Z,1.52
2018-12-27T22:04:19.087Z,1.30
2018-12-27T22:07:22.539Z,1.50
2018-12-27T22:10:26.078Z,1.60
2018-12-27T22:13:29.695Z,1.50
2018-12-27T22:16:33.211Z,1.60
2018-12-27T22:19:36.706Z,1.65
2018-12-27T22:22:40.199Z,1.60
2018-12-27T22:25:43.765Z,1.30
2018-12-27T22:28:47.224Z,1.60
2018-12-27T22:31:50.973Z,1.37
2018-12-27T22:34:54.612Z,1.60
2018-12-27T22:37:58.123Z,1.50
2018-12-27T22:41:01.633Z,1.50
2018-12-27T22:44:05.145Z,1.35
2018-12-27T22:47:09.689Z,1.40
2018-12-27T22:50:13.159Z,1.40
2018-12-27T22:53:16.610Z,1.52
2018-12-27T22:56:20.165Z,1.60
2018-12-27T22:59:23.632Z,1.47
2018-12-27T23:02:27.149Z,1.57
2018-12-27T23:05:30.597Z,1.70
2018-12-27T23:08:34.126Z,1.20
2018-12-27T23:11:43.408Z,1.50
2018-12-27T23:14:46.998Z,1.47
2018-12-27T23:17:50.630Z,1.32
2018-12-27T23:20:54.147Z,1.45
2018-12-27T23:23:57.621Z,1.22
2018-12-27T23:27:01.110Z,1.62
2018-12-27T23:30:05.119Z,1.52
2018-12-27T23:33:08.636Z,1.47
2018-12-27T23:36:12.151Z,1.40
2018-12-27T23:39:15.626Z,1.80
2018-12-27T23:42:19.115Z,1.52
2018-12-27T23:45:22.631Z,1.70
2018-12-27T23:48:26.116Z,1.60
2018-12-27T23:51:29.753Z,1.65
2018-12-27T23:54:33.230Z,1.77
2018-12-27T23:57:36.721Z,1.52
